This is the latest recevied weather packets stored in our database for station/object DG4MND-4. If no packets are shown the sender has not sent any weather packets the latest 1 day(s).
| Time | Temp. | Humidity | Pressure | Rain* | Wind** | Luminosity | Snow |
|---|---|---|---|---|---|---|---|
| 1777982417 | 15.56° C | 87% | 1007.8 hPa | 0.25 mm | 0.45 m/s, 104° | - | - |
| 1777981877 | 15.56° C | 83% | 1008 hPa | 0 mm | 0.89 m/s, 139° | - | - |
| 1777981270 | 16.67° C | 80% | 1007.8 hPa | 0 mm | 0.45 m/s, 162° | - | - |
| 1777980670 | 17.22° C | 76% | 1007.7 hPa | 0 mm | 0.45 m/s, 42° | - | - |
| 1777980066 | 18.33° C | 69% | 1007.4 hPa | 0 mm | 0.89 m/s, 92° | - | - |
| 1777979463 | 18.89° C | 63% | 1007.4 hPa | 0 mm | 0.45 m/s, 152° | - | - |
| 1777978859 | 18.89° C | 62% | 1007.2 hPa | 0 mm | 0.45 m/s, 167° | - | - |
| 1777978260 | 18.89° C | 62% | 1007.3 hPa | 0 mm | 0.45 m/s, 167° | - | - |
| 1777977649 | 19.44° C | 61% | 1007.4 hPa | 0 mm | 0 m/s | - | - |
| 1777977049 | 20° C | 59% | 1007.2 hPa | 0 mm | 0 m/s | - | - |
| 1777976445 | 19.44° C | 60% | 1007.3 hPa | 0 mm | 0 m/s | - | - |
| 1777975841 | 18.89° C | 60% | 1007.3 hPa | 0 mm | 0 m/s | - | - |
| 1777975235 | 18.33° C | 61% | 1007.4 hPa | 0 mm | 0 m/s | - | - |
| 1777974632 | 18.33° C | 63% | 1007.4 hPa | 0 mm | 0 m/s | - | - |
| 1777974028 | 18.33° C | 63% | 1007.4 hPa | 0 mm | 0 m/s | - | - |
| 1777973428 | 18.89° C | 61% | 1007.4 hPa | 0 mm | 0.45 m/s, 171° | - | - |
| 1777972822 | 18.33° C | 62% | 1007.5 hPa | 0 mm | 0.45 m/s, 331° | - | - |
| 1777972218 | 18.89° C | 63% | 1007.5 hPa | 0 mm | 0.45 m/s, 323° | - | - |
| 1777971675 | 18.33° C | 64% | 1007.5 hPa | 0 mm | 0.45 m/s, 128° | - | - |
| 1777971076 | 17.78° C | 67% | 1007.4 hPa | 0 mm | 0 m/s | - | - |
| 1777970471 | 17.78° C | 66% | 1007.5 hPa | 0 mm | 0.89 m/s, 145° | - | - |
| 1777969868 | 17.78° C | 68% | 1007.6 hPa | 0 mm | 0 m/s | - | - |
| 1777969261 | 17.78° C | 68% | 1007.6 hPa | 0 mm | 0.45 m/s, 203° | - | - |
| 1777968661 | 17.78° C | 68% | 1007.7 hPa | 0 mm | 0.45 m/s, 202° | - | - |
| 1777968054 | 18.33° C | 67% | 1008 hPa | 0 mm | 0 m/s | - | - |
* Rain latest hour (hover to see other rain measurements)
** Current wind speed in m/s (hover to see current wind gust speed)